Time;durP1;ratioP1;P1;durP2;ratioP2;P2;SDS_P1;SDS_P2;PMS_P1;PMS_P2;Temp;Humidity;BMP_temperature;BMP_pressure;BME280_temperature;BME280_humidity;BME280_pressure;Samples;Min_cycle;Max_cycle;Signal;HPM_P1;HPM_P2
2022/12/26 00:01:25;;;;;;;4.83;4.37;;;8.40;99.90;;;;;;5050007;28;20229;-51
2022/12/26 00:03:51;;;;;;;5.20;4.67;;;;;;;;;;5049461;28;20203;-54
2022/12/26 00:06:18;;;;;;;5.83;5.07;;;;;;;;;;5049312;28;20198;-52
2022/12/26 00:08:45;;;;;;;6.17;5.57;;;8.20;99.90;;;;;;5049996;28;20206;-51
2022/12/26 00:11:11;;;;;;;6.70;5.70;;;;;;;;;;5049109;28;20214;-53
2022/12/26 00:13:41;;;;;;;5.70;5.00;;;8.30;99.90;;;;;;5049456;28;20187;-51
2022/12/26 00:16:11;;;;;;;5.13;4.70;;;;;;;;;;5049373;28;20276;-53
2022/12/26 00:18:37;;;;;;;6.87;6.13;;;;;;;;;;5049741;28;20175;-53
2022/12/26 00:21:03;;;;;;;8.53;5.73;;;;;;;;;;5032047;28;20187;-54
2022/12/26 00:23:31;;;;;;;5.97;5.33;;;;;;;;;;5048714;28;20206;-50
2022/12/26 00:26:01;;;;;;;7.03;5.87;;;;;;;;;;5048416;28;20167;-50
2022/12/26 00:28:27;;;;;;;7.73;6.17;;;8.50;99.90;;;;;;5049214;28;20250;-51
2022/12/26 00:30:53;;;;;;;7.87;6.03;;;;;;;;;;5049593;28;20588;-52
2022/12/26 00:33:19;;;;;;;8.47;6.00;;;;;;;;;;5048973;28;20532;-55
2022/12/26 00:35:45;;;;;;;6.37;5.40;;;;;;;;;;5048964;28;20555;-51
2022/12/26 00:38:11;;;;;;;6.50;4.83;;;;;;;;;;5049589;28;20588;-52
2022/12/26 00:40:42;;;;;;;8.00;5.87;;;;;;;;;;5048907;28;20171;-52
2022/12/26 00:43:08;;;;;;;6.50;5.07;;;;;;;;;;5049404;28;20717;-51
2022/12/26 00:45:34;;;;;;;8.17;6.10;;;;;;;;;;5048319;28;20179;-52
2022/12/26 00:47:59;;;;;;;8.60;5.93;;;;;;;;;;5048360;28;20278;-50
2022/12/26 00:50:26;;;;;;;6.73;5.37;;;;;;;;;;5046338;28;20179;-52
2022/12/26 00:52:52;;;;;;;6.77;5.37;;;;;;;;;;5048978;28;20175;-51
2022/12/26 00:55:18;;;;;;;7.10;6.00;;;;;;;;;;5048745;28;20175;-51
2022/12/26 00:57:44;;;;;;;7.37;5.80;;;;;;;;;;5093804;22;20229;-59
2022/12/26 01:00:10;;;;;;;7.33;5.70;;;8.30;99.90;;;;;;5063443;28;20540;-60
2022/12/26 01:02:36;;;;;;;7.20;5.57;;;;;;;;;;5036326;28;20340;-58
2022/12/26 01:05:02;;;;;;;13.07;10.73;;;;;;;;;;5063473;28;20652;-58
2022/12/26 01:07:28;;;;;;;6.10;5.20;;;;;;;;;;5061126;28;20199;-61
2022/12/26 01:09:54;;;;;;;7.17;5.53;;;;;;;;;;5071295;28;20190;-58
2022/12/26 01:12:20;;;;;;;6.87;5.27;;;;;;;;;;5070977;28;20346;-59
2022/12/26 01:14:46;;;;;;;9.47;6.23;;;;;;;;;;5070850;28;20632;-60
2022/12/26 01:17:12;;;;;;;6.37;5.03;;;;;;;;;;5053422;28;20198;-58
2022/12/26 01:19:38;;;;;;;7.00;5.63;;;;;;;;;;5071244;28;20186;-58
2022/12/26 01:22:04;;;;;;;9.10;7.10;;;;;;;;;;5070999;28;20213;-60
2022/12/26 01:24:29;;;;;;;5.30;4.73;;;8.20;99.90;;;;;;5070690;28;20220;-60
2022/12/26 01:26:55;;;;;;;4.77;4.30;;;;;;;;;;5053461;28;20175;-59
2022/12/26 01:29:21;;;;;;;10.13;8.00;;;8.20;99.90;;;;;;5071131;28;20224;-58
2022/12/26 01:31:47;;;;;;;6.20;4.87;;;;;;;;;;5071688;28;20174;-58
2022/12/26 01:34:13;;;;;;;6.40;5.30;;;;;;;;;;5070880;28;20684;-57
2022/12/26 01:36:38;;;;;;;5.87;4.80;;;8.20;99.90;;;;;;5070895;28;20508;-60
2022/12/26 01:39:04;;;;;;;5.30;4.80;;;;;;;;;;5070911;28;20551;-60
2022/12/26 01:41:32;;;;;;;6.77;4.67;;;;;;;;;;5070893;28;20863;-59
2022/12/26 01:43:57;;;;;;;10.47;7.67;;;7.80;99.90;;;;;;5070904;28;20177;-60
2022/12/26 01:46:43;;;;;;;5.43;4.77;;;7.80;99.90;;;;;;5071002;28;20166;-59
2022/12/26 01:49:27;;;;;;;5.20;4.60;;;7.90;99.90;;;;;;5071325;28;20186;-59
2022/12/26 01:51:58;;;;;;;7.73;5.80;;;7.70;99.90;;;;;;5070874;28;20614;-60
2022/12/26 01:54:25;;;;;;;15.17;11.40;;;;;;;;;;5070823;28;20540;-58
2022/12/26 01:56:51;;;;;;;13.23;9.90;;;;;;;;;;5070814;28;20174;-61
2022/12/26 01:59:23;;;;;;;20.43;15.23;;;7.80;99.90;;;;;;5071006;28;20209;-57
2022/12/26 02:01:50;;;;;;;12.67;10.53;;;7.80;99.90;;;;;;5067245;28;20178;-60
2022/12/26 02:07:06;;;;;;;6.33;5.73;;;7.60;99.90;;;;;;5070956;28;20205;-60
2022/12/26 02:09:32;;;;;;;11.10;9.13;;;7.60;99.90;;;;;;5070702;28;20167;-59
2022/12/26 02:12:22;;;;;;;20.70;15.83;;;7.50;99.90;;;;;;5070418;28;20181;-60
2022/12/26 02:14:49;;;;;;;27.07;20.73;;;7.50;99.90;;;;;;5064172;28;20236;-60
2022/12/26 02:17:15;;;;;;;23.03;14.93;;;7.50;99.90;;;;;;5070853;28;20201;-60
2022/12/26 02:20:11;;;;;;;16.97;13.20;;;7.50;99.90;;;;;;5070665;28;20178;-56
2022/12/26 02:22:40;;;;;;;16.53;12.83;;;7.60;99.90;;;;;;5070862;28;20213;-60
2022/12/26 02:25:21;;;;;;;12.90;10.30;;;;;;;;;;5070423;28;20568;-60
2022/12/26 02:28:07;;;;;;;8.37;6.47;;;;;;;;;;5070786;28;20360;-57
2022/12/26 02:30:48;;;;;;;7.47;6.67;;;;;;;;;;5070613;28;20243;-58
2022/12/26 02:33:27;;;;;;;8.67;7.27;;;;;;;;;;5070391;28;20567;-58
2022/12/26 02:35:56;;;;;;;8.50;7.20;;;;;;;;;;5069819;28;20174;-55
2022/12/26 02:38:30;;;;;;;8.97;7.77;;;7.70;99.90;;;;;;5049525;28;20206;-60
2022/12/26 02:40:56;;;;;;;6.80;5.40;;;;;;;;;;5068535;28;20288;-59
2022/12/26 02:43:29;;;;;;;7.70;6.53;;;;;;;;;;5069487;28;20289;-59
2022/12/26 02:49:04;;;;;;;10.73;7.50;;;7.60;99.90;;;;;;5068174;28;20205;-60
2022/12/26 03:14:51;;;;;;;4.20;3.80;;;7.30;99.90;;;;;;4972247;28;20197;-59
2022/12/26 03:17:22;;;;;;;5.27;4.50;;;;;;;;;;4972690;28;20215;-60
2022/12/26 03:19:58;;;;;;;4.23;3.87;;;7.10;99.90;;;;;;4972638;28;20170;-58
2022/12/26 03:22:44;;;;;;;4.10;3.70;;;;;;;;;;4972778;28;20202;-57
2022/12/26 03:27:57;;;;;;;4.60;4.10;;;;;;;;;;4972877;28;20264;-60
2022/12/26 03:34:15;;;;;;;4.40;4.00;;;;;;;;;;5000296;28;20216;-60
2022/12/26 03:35:54;;;;;;;9.83;4.77;;;;;;;;;;5071433;28;20617;-60
2022/12/26 03:38:33;;;;;;;5.27;4.77;;;7.00;99.90;;;;;;5073467;28;20198;-60
2022/12/26 04:46:33;;;;;;;4.40;4.00;;;;;;;;;;5072192;28;20527;-59
2022/12/26 04:51:44;;;;;;;4.50;4.10;;;;;;;;;;5072165;28;20166;-59
2022/12/26 04:54:10;;;;;;;5.07;4.57;;;;;;;;;;5071592;28;20547;-56
2022/12/26 04:56:36;;;;;;;4.57;4.17;;;;;;;;;;5064163;28;20200;-54
2022/12/26 04:59:02;;;;;;;4.90;4.40;;;;;;;;;;5071482;28;20214;-58
2022/12/26 05:09:47;;;;;;;4.73;3.83;;;6.70;99.90;;;;;;5071541;28;20162;-59
2022/12/26 05:12:13;;;;;;;4.47;4.07;;;;;;;;;;5071342;28;20536;-56
2022/12/26 05:14:39;;;;;;;4.43;3.93;;;;;;;;;;5071309;28;20178;-57
2022/12/26 05:30:57;;;;;;;4.07;3.47;;;6.60;99.90;;;;;;5071514;28;20331;-58
2022/12/26 05:36:08;;;;;;;4.00;3.60;;;;;;;;;;5071048;28;20193;-57
2022/12/26 05:38:35;;;;;;;4.03;3.63;;;6.40;99.90;;;;;;5071330;28;20208;-58
2022/12/26 05:41:01;;;;;;;5.50;4.20;;;6.70;99.90;;;;;;5070998;28;20264;-59
2022/12/26 05:43:27;;;;;;;5.37;4.13;;;;;;;;;;5071189;28;20280;-56
2022/12/26 05:45:52;;;;;;;4.53;4.07;;;;;;;;;;5071258;28;20170;-56
2022/12/26 05:48:18;;;;;;;5.53;4.43;;;;;;;;;;5070644;28;20594;-60
2022/12/26 05:50:44;;;;;;;6.70;5.20;;;;;;;;;;5071231;28;20832;-55
2022/12/26 05:53:10;;;;;;;6.17;4.30;;;;;;;;;;5070757;28;20512;-57
2022/12/26 05:55:36;;;;;;;5.27;4.77;;;6.30;99.90;;;;;;5070871;28;20182;-59
2022/12/26 05:58:01;;;;;;;5.00;4.07;;;6.50;99.90;;;;;;5070387;28;20228;-59
2022/12/26 06:00:29;;;;;;;4.97;4.33;;;;;;;;;;5070912;28;20596;-58
2022/12/26 06:02:54;;;;;;;4.90;4.33;;;;;;;;;;5071134;28;20285;-56
2022/12/26 06:05:21;;;;;;;5.07;4.47;;;;;;;;;;5060032;28;20269;-60
2022/12/26 06:07:47;;;;;;;4.67;4.20;;;6.50;99.90;;;;;;5071100;28;20194;-59
2022/12/26 06:10:12;;;;;;;5.80;4.53;;;;;;;;;;5069682;28;20678;-60
2022/12/26 06:12:38;;;;;;;5.33;4.83;;;;;;;;;;5070976;28;20185;-57
2022/12/26 06:15:05;;;;;;;5.80;5.10;;;;;;;;;;5070512;28;20602;-57
2022/12/26 06:17:31;;;;;;;8.33;5.40;;;6.20;99.90;;;;;;5070811;28;20198;-57
2022/12/26 06:19:56;;;;;;;5.73;4.90;;;;;;;;;;5070573;28;20590;-59
2022/12/26 06:22:23;;;;;;;6.17;5.37;;;;;;;;;;5070696;28;20197;-59
2022/12/26 06:24:48;;;;;;;5.30;4.80;;;;;;;;;;5071934;28;20261;-58
2022/12/26 06:27:14;;;;;;;6.97;6.07;;;;;;;;;;5074029;28;20268;-57
2022/12/26 06:29:40;;;;;;;5.57;4.83;;;;;;;;;;5074433;28;20178;-56
2022/12/26 06:32:06;;;;;;;6.87;5.10;;;;;;;;;;5074583;28;20551;-60
2022/12/26 06:34:32;;;;;;;6.63;5.00;;;;;;;;;;5074394;28;20178;-54
2022/12/26 06:36:58;;;;;;;6.13;5.33;;;;;;;;;;5074430;28;20174;-58
2022/12/26 06:39:24;;;;;;;5.80;5.17;;;;;;;;;;5074416;28;20705;-60
2022/12/26 06:41:50;;;;;;;6.80;5.53;;;;;;;;;;5074189;28;20183;-58
2022/12/26 06:44:16;;;;;;;5.53;4.97;;;;;;;;;;5074323;28;20175;-58
2022/12/26 06:46:42;;;;;;;5.17;4.20;;;;;;;;;;5074170;28;20194;-59
2022/12/26 06:49:08;;;;;;;4.53;4.00;;;;;;;;;;5074393;28;20538;-58
2022/12/26 06:51:34;;;;;;;5.23;4.73;;;;;;;;;;5074526;28;20535;-57
2022/12/26 06:54:04;;;;;;;4.90;4.40;;;;;;;;;;5073796;28;20551;-58
2022/12/26 06:56:30;;;;;;;5.40;4.33;;;;;;;;;;5074293;28;20645;-58
2022/12/26 06:59:00;;;;;;;4.23;3.80;;;;;;;;;;5163514;22;20227;-52
2022/12/26 07:01:27;;;;;;;4.17;3.77;;;;;;;;;;5052702;28;20180;-50
2022/12/26 07:03:54;;;;;;;4.43;4.03;;;;;;;;;;5053303;28;20838;-52
2022/12/26 07:06:27;;;;;;;4.90;4.50;;;;;;;;;;5059802;28;20171;-52
2022/12/26 07:08:54;;;;;;;4.47;4.07;;;;;;;;;;5047806;28;20699;-47
2022/12/26 07:11:22;;;;;;;5.40;4.90;;;;;;;;;;5033814;28;20712;-51
2022/12/26 07:13:48;;;;;;;6.43;5.83;;;;;;;;;;5038062;28;20190;-48
2022/12/26 07:16:14;;;;;;;6.73;5.73;;;;;;;;;;5042321;28;20176;-50
2022/12/26 07:18:40;;;;;;;4.23;3.83;;;;;;;;;;5034959;28;20210;-48
2022/12/26 07:21:07;;;;;;;4.20;3.80;;;6.30;99.90;;;;;;5053731;28;20179;-47
2022/12/26 07:23:34;;;;;;;4.23;3.83;;;;;;;;;;5054028;28;20229;-48
2022/12/26 07:26:00;;;;;;;7.23;4.00;;;;;;;;;;5053527;28;20179;-47
2022/12/26 07:28:26;;;;;;;4.23;3.83;;;6.60;99.90;;;;;;5053551;28;20553;-49
2022/12/26 07:30:52;;;;;;;5.83;4.50;;;;;;;;;;5054003;28;20203;-48
2022/12/26 07:33:18;;;;;;;4.43;3.83;;;;;;;;;;5042034;28;20262;-49
2022/12/26 07:35:44;;;;;;;4.30;3.87;;;;;;;;;;5033288;28;20187;-51
2022/12/26 07:38:11;;;;;;;4.67;4.00;;;6.70;99.90;;;;;;5033338;28;20196;-46
2022/12/26 07:40:37;;;;;;;4.63;4.23;;;6.70;99.90;;;;;;5033812;28;20206;-49
2022/12/26 07:43:03;;;;;;;5.57;4.60;;;;;;;;;;5033595;28;20234;-52
2022/12/26 07:45:28;;;;;;;4.60;4.20;;;6.90;99.90;;;;;;5033226;28;20179;-50
2022/12/26 07:47:57;;;;;;;4.83;4.33;;;7.00;99.90;;;;;;5033765;28;20202;-52
2022/12/26 07:50:25;;;;;;;7.23;5.87;;;7.30;99.90;;;;;;5033431;28;20190;-51
2022/12/26 07:52:50;;;;;;;7.00;6.10;;;7.60;99.90;;;;;;5033634;28;20214;-49
2022/12/26 07:55:16;;;;;;;8.77;7.00;;;;;;;;;;5032813;28;20215;-52
2022/12/26 07:57:42;;;;;;;8.97;8.07;;;7.60;99.90;;;;;;5033434;28;20205;-49
2022/12/26 08:00:08;;;;;;;4.13;3.73;;;7.60;99.90;;;;;;5033169;28;20202;-47
2022/12/26 08:02:34;;;;;;;4.10;3.73;;;7.60;99.90;;;;;;5033374;28;20219;-47
2022/12/26 08:05:00;;;;;;;4.67;4.10;;;;;;;;;;5033232;28;20295;-52
2022/12/26 08:07:26;;;;;;;5.70;4.17;;;;;;;;;;5014763;28;20537;-49
2022/12/26 08:09:52;;;;;;;4.70;4.00;;;;;;;;;;5033005;28;20203;-49
2022/12/26 08:12:23;;;;;;;5.83;4.07;;;;;;;;;;5032779;28;20187;-49
2022/12/26 08:14:49;;;;;;;4.47;4.07;;;;;;;;;;5032894;28;20306;-49
2022/12/26 08:17:14;;;;;;;4.33;3.60;;;8.90;99.90;;;;;;5032792;28;20238;-48
2022/12/26 08:19:40;;;;;;;3.97;3.67;;;;;;;;;;5033206;28;20199;-52
2022/12/26 08:22:06;;;;;;;4.30;3.80;;;;;;;;;;5033000;28;20211;-53
2022/12/26 08:24:32;;;;;;;4.60;4.10;;;;;;;;;;5032246;28;20214;-52
2022/12/26 08:26:58;;;;;;;4.00;3.60;;;;;;;;;;5032933;28;20841;-50
2022/12/26 08:29:24;;;;;;;4.40;4.00;;;11.00;99.90;;;;;;5032480;28;20538;-49
2022/12/26 08:31:50;;;;;;;4.07;3.67;;;;;;;;;;5033068;28;20537;-51
2022/12/26 08:34:16;;;;;;;6.20;4.00;;;;;;;;;;5032129;28;20176;-50
2022/12/26 08:36:42;;;;;;;3.90;3.50;;;;;;;;;;5032768;28;20211;-51
2022/12/26 08:39:08;;;;;;;4.07;3.53;;;;;;;;;;5014406;28;20236;-51
2022/12/26 08:41:34;;;;;;;3.57;3.27;;;;;;;;;;5032397;28;20176;-50
2022/12/26 08:44:00;;;;;;;4.47;3.37;;;;;;;;;;5032136;28;20696;-53
2022/12/26 08:46:25;;;;;;;10.60;9.07;;;;;;;;;;5031431;28;20200;-52
2022/12/26 08:48:51;;;;;;;12.07;10.87;;;13.10;99.90;;;;;;5032549;28;20664;-50
2022/12/26 08:51:20;;;;;;;7.53;6.73;;;13.50;99.90;;;;;;5032012;28;20179;-49
2022/12/26 08:53:48;;;;;;;5.47;4.20;;;;;;;;;;5030975;28;20184;-48
2022/12/26 08:56:16;;;;;;;4.03;3.73;;;14.50;99.90;;;;;;5031119;28;20271;-49
2022/12/26 08:58:42;;;;;;;4.37;3.97;;;14.90;99.90;;;;;;5031942;28;20259;-50
2022/12/26 09:01:16;;;;;;;3.20;3.00;;;15.00;99.90;;;;;;5014848;28;20191;-51
2022/12/26 09:03:42;;;;;;;3.40;3.10;;;15.40;99.90;;;;;;5011299;28;20204;-53
2022/12/26 09:06:09;;;;;;;3.50;2.63;;;16.90;99.90;;;;;;5012621;28;20195;-52
2022/12/26 09:08:36;;;;;;;3.30;3.00;;;17.50;99.90;;;;;;5011282;28;20983;-53
2022/12/26 09:11:07;;;;;;;3.07;2.77;;;17.70;99.90;;;;;;5011977;28;20181;-50
2022/12/26 09:13:34;;;;;;;3.00;2.80;;;17.30;99.90;;;;;;5031301;28;20193;-48
2022/12/26 09:16:10;;;;;;;3.50;3.20;;;17.90;97.90;;;;;;5030983;28;20639;-49
2022/12/26 09:18:36;;;;;;;2.90;2.70;;;18.50;97.40;;;;;;5031812;28;20204;-52
2022/12/26 09:21:03;;;;;;;2.87;2.50;;;;;;;;;;5031591;28;20310;-51
2022/12/26 09:23:30;;;;;;;2.95;2.75;;;20.20;99.40;;;;;;5030309;28;20204;-50
2022/12/26 09:25:56;;;;;;;2.67;2.47;;;;;;;;;;5037915;28;20596;-50
2022/12/26 09:28:21;;;;;;;3.17;2.88;;;21.30;99.50;;;;;;5031246;28;20203;-50
2022/12/26 09:30:47;;;;;;;22.17;19.25;;;21.40;90.00;;;;;;5028660;28;20184;-51
2022/12/26 09:33:13;;;;;;;15.70;13.73;;;;;;;;;;5043800;28;20191;-51
2022/12/26 09:35:39;;;;;;;3.40;3.10;;;25.60;91.50;;;;;;5029014;28;20180;-51
2022/12/26 09:38:05;;;;;;;2.78;2.58;;;;;;;;;;5009832;28;20187;-52
2022/12/26 09:40:45;;;;;;;2.35;2.15;;;27.80;78.00;;;;;;5029310;28;20179;-51
2022/12/26 09:43:14;;;;;;;2.40;2.30;;;;;;;;;;5028623;28;20595;-54
2022/12/26 09:45:54;;;;;;;2.55;2.38;;;;;;;;;;5027493;28;20540;-53
2022/12/26 09:48:32;;;;;;;2.47;2.28;;;;;;;;;;5018874;28;20192;-53
2022/12/26 09:50:58;;;;;;;2.65;2.42;;;;;;;;;;5033730;28;20192;-55
2022/12/26 09:53:32;;;;;;;2.53;2.33;;;29.40;58.10;;;;;;5028381;28;20558;-53
2022/12/26 09:55:57;;;;;;;2.50;2.30;;;;;;;;;;5029686;28;20591;-54
2022/12/26 09:58:33;;;;;;;2.40;2.20;;;28.00;57.80;;;;;;5028513;28;20208;-52
2022/12/26 10:01:23;;;;;;;2.85;2.47;;;26.90;59.10;;;;;;5026150;28;20184;-51
2022/12/26 10:03:52;;;;;;;3.05;2.58;;;25.50;66.30;;;;;;5024663;28;20200;-55
2022/12/26 10:06:19;;;;;;;2.65;2.45;;;25.50;62.90;;;;;;5031009;28;20229;-52
2022/12/26 10:09:15;;;;;;;2.60;2.40;;;24.20;64.60;;;;;;5030563;28;20822;-49
2022/12/26 10:12:05;;;;;;;3.20;3.00;;;22.90;67.10;;;;;;5030548;28;20200;-49
2022/12/26 10:14:39;;;;;;;3.70;3.40;;;20.60;72.40;;;;;;5030963;28;20164;-50
2022/12/26 10:17:20;;;;;;;4.20;3.80;;;17.90;74.20;;;;;;5030185;28;20667;-50
2022/12/26 10:20:04;;;;;;;3.70;3.40;;;19.00;79.40;;;;;;5030522;28;20263;-50
2022/12/26 10:22:30;;;;;;;3.97;3.27;;;;;;;;;;5024804;28;20592;-47
2022/12/26 10:25:00;;;;;;;3.70;3.40;;;17.70;88.40;;;;;;5030165;28;20313;-51
2022/12/26 10:27:27;;;;;;;3.20;2.90;;;17.60;87.40;;;;;;5029416;28;20191;-52
2022/12/26 10:30:03;;;;;;;6.27;3.87;;;17.30;90.40;;;;;;5028916;28;20200;-50
2022/12/26 10:32:46;;;;;;;3.20;3.00;;;16.90;91.70;;;;;;5021578;28;20223;-46
2022/12/26 10:35:22;;;;;;;3.43;3.20;;;16.50;93.40;;;;;;5024937;28;20326;-46
2022/12/26 10:37:50;;;;;;;3.80;3.50;;;16.10;95.10;;;;;;5028673;28;20198;-50
2022/12/26 10:40:18;;;;;;;4.30;3.57;;;15.80;96.60;;;;;;5020839;28;20280;-46
2022/12/26 10:42:49;;;;;;;3.70;3.40;;;15.70;97.70;;;;;;5027007;28;20547;-46
2022/12/26 10:45:26;;;;;;;3.33;3.03;;;15.60;99.00;;;;;;5018148;28;20184;-48
2022/12/26 10:47:53;;;;;;;3.77;3.47;;;15.50;99.40;;;;;;5020843;28;21710;-50
2022/12/26 10:50:25;;;;;;;3.80;3.50;;;15.30;99.90;;;;;;5030207;28;20194;-49
2022/12/26 10:52:50;;;;;;;4.00;3.63;;;15.00;99.90;;;;;;5029466;28;20232;-49
2022/12/26 10:55:19;;;;;;;5.30;4.37;;;14.90;99.90;;;;;;5029159;28;20265;-50
2022/12/26 10:57:51;;;;;;;5.07;3.77;;;14.70;99.90;;;;;;5012011;28;20187;-49
2022/12/26 11:00:21;;;;;;;4.73;3.90;;;14.60;99.90;;;;;;5003892;28;20565;-51
2022/12/26 11:03:22;;;;;;;4.70;4.30;;;14.50;99.90;;;;;;5022570;28;20224;-45
2022/12/26 11:05:51;;;;;;;4.10;3.70;;;14.30;99.90;;;;;;4980076;28;20186;-48
2022/12/26 11:08:29;;;;;;;3.90;3.50;;;15.50;99.90;;;;;;4964433;28;20622;-50
2022/12/26 11:11:03;;;;;;;3.13;2.93;;;14.20;99.90;;;;;;4967291;28;20550;-49
2022/12/26 11:13:32;;;;;;;8.40;6.87;;;14.40;99.90;;;;;;4983820;28;20205;-44
2022/12/26 11:15:58;;;;;;;5.73;4.30;;;14.70;99.90;;;;;;4983485;28;20179;-46
2022/12/26 11:18:39;;;;;;;4.20;3.80;;;15.10;99.90;;;;;;4980312;28;20212;-49
2022/12/26 11:21:32;;;;;;;4.73;3.77;;;15.90;99.90;;;;;;4971327;28;20210;-53
2022/12/26 11:24:15;;;;;;;4.30;3.90;;;16.50;99.90;;;;;;4974465;28;20240;-47
2022/12/26 11:26:40;;;;;;;3.80;3.37;;;16.90;99.90;;;;;;4989237;28;20317;-47
2022/12/26 11:29:13;;;;;;;3.40;3.10;;;17.30;99.70;;;;;;4966971;28;20229;-46
2022/12/26 11:32:03;;;;;;;7.50;6.80;;;17.40;99.20;;;;;;4984218;28;20647;-45
2022/12/26 11:34:44;;;;;;;3.77;3.47;;;17.30;98.70;;;;;;4975895;28;20598;-47
2022/12/26 11:37:30;;;;;;;4.40;2.90;;;17.00;99.20;;;;;;4964956;28;21836;-51
2022/12/26 11:39:56;;;;;;;3.40;3.10;;;16.50;99.70;;;;;;5014173;28;20270;-48
2022/12/26 11:42:24;;;;;;;14.87;13.27;;;16.40;99.90;;;;;;5033067;28;20589;-48
2022/12/26 11:44:53;;;;;;;3.83;3.47;;;16.30;99.90;;;;;;5024657;28;20245;-47
2022/12/26 11:47:22;;;;;;;3.47;3.17;;;16.10;99.90;;;;;;5025732;28;20172;-44
2022/12/26 11:50:05;;;;;;;3.80;3.37;;;15.90;99.90;;;;;;5023192;28;20703;-46
2022/12/26 11:52:54;;;;;;;3.40;3.17;;;16.00;99.90;;;;;;5013430;28;20192;-49
2022/12/26 11:55:23;;;;;;;3.80;3.50;;;16.00;99.90;;;;;;5024666;28;20172;-49
2022/12/26 11:58:05;;;;;;;5.30;4.00;;;15.90;99.90;;;;;;5025405;28;20581;-51
2022/12/26 12:00:34;;;;;;;4.33;3.93;;;15.90;99.90;;;;;;5028808;28;20195;-46
2022/12/26 12:03:01;;;;;;;4.50;4.10;;;15.80;99.90;;;;;;5014108;28;20665;-52
2022/12/26 12:05:57;;;;;;;4.60;4.20;;;15.70;99.90;;;;;;5027788;28;20258;-50
2022/12/26 12:08:32;;;;;;;4.73;4.33;;;15.60;99.90;;;;;;5031579;28;20221;-51
2022/12/26 12:11:44;;;;;;;7.47;6.17;;;15.50;99.90;;;;;;5031517;28;20644;-49
2022/12/26 12:14:15;;;;;;;9.23;8.33;;;15.40;99.90;;;;;;5026470;28;20183;-51
2022/12/26 12:16:51;;;;;;;12.43;11.23;;;15.30;99.90;;;;;;5032165;28;20189;-48
2022/12/26 12:19:35;;;;;;;14.87;13.50;;;15.20;99.90;;;;;;5037098;28;20280;-50
2022/12/26 12:22:13;;;;;;;15.27;13.90;;;15.00;99.90;;;;;;5018350;28;20183;-49
2022/12/26 12:25:01;;;;;;;8.43;7.73;;;14.90;99.90;;;;;;5027485;28;20674;-45
2022/12/26 12:27:31;;;;;;;9.37;8.37;;;14.80;99.90;;;;;;5031399;28;20172;-48
2022/12/26 12:30:06;;;;;;;7.53;6.70;;;14.70;99.90;;;;;;5031453;28;20747;-47
2022/12/26 12:32:53;;;;;;;6.30;5.70;;;14.60;99.90;;;;;;5031957;28;20310;-50
2022/12/26 12:35:29;;;;;;;6.77;5.17;;;14.50;99.90;;;;;;5030990;28;20181;-50
2022/12/26 12:38:23;;;;;;;5.90;5.30;;;14.40;99.90;;;;;;5030850;28;20249;-45
2022/12/26 12:40:57;;;;;;;7.83;6.70;;;14.30;99.90;;;;;;5037506;28;20180;-49
2022/12/26 12:43:34;;;;;;;5.53;4.83;;;14.10;99.90;;;;;;5032422;28;20190;-47
2022/12/26 12:46:31;;;;;;;5.77;5.23;;;14.00;99.90;;;;;;5032036;28;20544;-51
2022/12/26 12:48:56;;;;;;;7.00;6.30;;;13.90;99.90;;;;;;5023584;28;20218;-49
2022/12/26 12:51:43;;;;;;;7.80;5.90;;;13.80;99.90;;;;;;5030858;28;20172;-47
2022/12/26 12:54:46;;;;;;;7.70;6.90;;;13.70;99.90;;;;;;5021331;28;20183;-50
2022/12/26 12:57:41;;;;;;;7.90;6.73;;;13.60;99.90;;;;;;4958944;28;20607;-47
2022/12/26 13:00:33;;;;;;;7.33;6.63;;;13.60;99.90;;;;;;4969118;28;20189;-52
2022/12/26 13:03:09;;;;;;;6.30;5.70;;;13.40;99.90;;;;;;4971674;28;20239;-47
2022/12/26 13:06:03;;;;;;;7.07;6.10;;;13.30;99.90;;;;;;4982116;28;20176;-50
2022/12/26 13:08:31;;;;;;;6.90;6.20;;;13.20;99.90;;;;;;4975263;28;20361;-47
2022/12/26 13:11:18;;;;;;;6.00;5.40;;;13.10;99.90;;;;;;4968071;28;20185;-47
2022/12/26 13:13:53;;;;;;;7.03;5.87;;;13.10;99.90;;;;;;4971018;28;20185;-49
2022/12/26 13:16:23;;;;;;;6.03;5.23;;;13.10;99.90;;;;;;4972917;28;20647;-48
2022/12/26 13:19:05;;;;;;;6.30;5.70;;;13.10;99.90;;;;;;4954725;28;20205;-50
2022/12/26 13:21:36;;;;;;;5.60;5.00;;;13.00;99.90;;;;;;4982773;28;20216;-50
2022/12/26 13:24:23;;;;;;;6.03;5.30;;;12.90;99.90;;;;;;4972177;28;20220;-48
2022/12/26 13:26:52;;;;;;;6.90;6.17;;;12.80;99.90;;;;;;4970475;28;20188;-51
2022/12/26 13:29:27;;;;;;;3.97;3.67;;;12.80;99.90;;;;;;4977650;28;20204;-47
2022/12/26 13:31:52;;;;;;;4.37;3.97;;;12.60;99.90;;;;;;4971117;28;20177;-48
2022/12/26 13:34:19;;;;;;;5.17;4.67;;;12.40;99.90;;;;;;4997726;28;20180;-46
2022/12/26 13:36:47;;;;;;;4.70;4.23;;;12.20;99.90;;;;;;5030914;28;20184;-49
2022/12/26 13:39:32;;;;;;;4.67;4.27;;;12.00;99.90;;;;;;5030662;28;20211;-46
2022/12/26 13:45:36;;;;;;;6.67;5.43;;;11.70;99.90;;;;;;5021241;28;20580;-51
2022/12/26 13:48:16;;;;;;;5.83;5.03;;;11.40;99.90;;;;;;5029338;28;20196;-47
2022/12/26 13:50:50;;;;;;;5.33;4.53;;;12.60;99.90;;;;;;5029204;28;20188;-45
2022/12/26 13:53:24;;;;;;;5.23;4.73;;;10.90;99.90;;;;;;5028752;28;20768;-46
2022/12/26 13:55:52;;;;;;;5.60;5.10;;;10.70;99.90;;;;;;5030498;28;20172;-47
2022/12/26 13:58:44;;;;;;;6.53;5.30;;;10.60;99.90;;;;;;5011133;28;20743;-47
2022/12/26 14:01:38;;;;;;;6.27;5.40;;;10.40;99.90;;;;;;5030127;28;20184;-47
2022/12/26 14:04:15;;;;;;;6.37;5.50;;;10.30;99.90;;;;;;5029719;28;20203;-46
2022/12/26 14:07:20;;;;;;;6.13;5.30;;;10.10;99.90;;;;;;5028431;28;20241;-47
2022/12/26 14:09:57;;;;;;;6.47;5.67;;;10.00;99.90;;;;;;5015661;28;20206;-48
2022/12/26 14:12:23;;;;;;;5.50;5.00;;;10.00;99.90;;;;;;5012302;28;20183;-48
2022/12/26 14:14:57;;;;;;;5.10;4.60;;;10.10;99.90;;;;;;5030602;28;20645;-47
2022/12/26 14:17:51;;;;;;;5.80;5.20;;;10.20;99.90;;;;;;5028797;28;20214;-47
2022/12/26 14:20:41;;;;;;;25.40;19.70;;;10.50;99.90;;;;;;5011797;28;20183;-51
2022/12/26 14:23:19;;;;;;;20.93;14.83;;;10.80;99.90;;;;;;5026906;28;20203;-50
2022/12/26 14:26:15;;;;;;;18.20;13.40;;;11.00;99.90;;;;;;5009821;28;20184;-47
2022/12/26 14:28:59;;;;;;;5.17;4.67;;;11.00;99.90;;;;;;5017396;28;20604;-48
2022/12/26 14:31:31;;;;;;;5.83;4.67;;;10.80;99.90;;;;;;5025777;28;20540;-50
2022/12/26 14:34:10;;;;;;;5.70;4.90;;;10.60;99.90;;;;;;5011083;28;20176;-49
2022/12/26 14:36:39;;;;;;;6.40;5.00;;;10.50;99.90;;;;;;5022329;28;20206;-47
2022/12/26 14:39:38;;;;;;;5.80;4.90;;;10.50;99.90;;;;;;5027991;28;20606;-47
2022/12/26 14:44:52;;;;;;;5.77;5.17;;;10.30;99.90;;;;;;5027773;28;20198;-50
2022/12/26 14:47:35;;;;;;;4.87;4.47;;;10.40;99.90;;;;;;5034310;28;20172;-46
2022/12/26 14:50:39;;;;;;;5.13;4.63;;;10.50;99.90;;;;;;5043121;28;20179;-49
2022/12/26 14:53:28;;;;;;;5.20;4.70;;;10.50;99.90;;;;;;5034051;28;20179;-50
2022/12/26 14:55:56;;;;;;;5.50;5.00;;;10.70;99.90;;;;;;5034212;28;20172;-48
2022/12/26 14:58:42;;;;;;;6.50;5.90;;;10.80;99.90;;;;;;5033878;28;20600;-44
2022/12/26 15:01:08;;;;;;;6.40;5.80;;;10.90;99.90;;;;;;5034410;28;20229;-47
2022/12/26 15:03:43;;;;;;;7.33;6.27;;;11.00;99.90;;;;;;5034497;28;20207;-45
2022/12/26 15:06:18;;;;;;;5.60;5.00;;;11.20;99.90;;;;;;5015695;28;20199;-47
2022/12/26 15:09:21;;;;;;;6.53;5.83;;;11.30;99.90;;;;;;5034439;28;20195;-50
2022/12/26 15:12:00;;;;;;;5.40;4.90;;;11.40;99.90;;;;;;5033772;28;20175;-47
2022/12/26 15:14:40;;;;;;;6.57;5.70;;;11.40;99.90;;;;;;5033203;28;20176;-49
2022/12/26 15:17:39;;;;;;;8.10;7.13;;;11.40;99.90;;;;;;5097371;22;20330;-52
2022/12/26 15:20:23;;;;;;;6.73;6.07;;;11.50;99.90;;;;;;5092881;28;20182;-54
2022/12/26 15:23:20;;;;;;;6.90;5.50;;;11.50;99.90;;;;;;5072695;28;20732;-52
2022/12/26 15:25:46;;;;;;;5.83;5.00;;;11.50;99.90;;;;;;5082993;28;20195;-54
2022/12/26 15:28:26;;;;;;;5.23;4.73;;;11.50;99.90;;;;;;5093399;28;20170;-52
2022/12/26 15:31:20;;;;;;;5.50;5.00;;;11.50;99.90;;;;;;5093829;28;20170;-51
2022/12/26 15:33:51;;;;;;;5.57;4.93;;;11.60;99.90;;;;;;5087693;28;20178;-51
2022/12/26 15:36:28;;;;;;;5.90;5.30;;;11.60;99.90;;;;;;5073178;28;20576;-49
2022/12/26 15:39:14;;;;;;;6.93;5.80;;;11.60;99.90;;;;;;5072582;28;20183;-49
2022/12/26 15:41:46;;;;;;;5.37;4.70;;;11.70;99.90;;;;;;5072808;28;20178;-50
2022/12/26 15:44:38;;;;;;;5.47;4.80;;;11.80;99.90;;;;;;5072241;28;20202;-50
2022/12/26 15:47:23;;;;;;;10.80;9.70;;;11.70;99.90;;;;;;5072655;28;20183;-51
2022/12/26 15:50:14;;;;;;;7.80;6.77;;;11.60;99.90;;;;;;5072975;28;20162;-50
2022/12/26 15:53:08;;;;;;;6.17;5.57;;;11.50;99.90;;;;;;5065566;28;20174;-50
2022/12/26 15:55:52;;;;;;;12.33;10.27;;;11.50;99.90;;;;;;5071389;28;20189;-50
2022/12/26 15:58:48;;;;;;;20.77;18.67;;;11.50;99.90;;;;;;5072838;28;20786;-49
2022/12/26 16:01:42;;;;;;;68.60;61.13;;;11.40;99.90;;;;;;5073052;28;20170;-54
2022/12/26 16:04:33;;;;;;;32.77;29.33;;;11.30;99.90;;;;;;5072346;28;20198;-48
2022/12/26 16:07:19;;;;;;;5.80;4.83;;;11.40;99.90;;;;;;5073116;28;20194;-49
2022/12/26 16:09:51;;;;;;;9.30;6.90;;;11.30;99.90;;;;;;5072600;28;20166;-49
2022/12/26 16:12:29;;;;;;;6.13;5.23;;;11.20;99.90;;;;;;5072237;28;20190;-49